Time;durP1;ratioP1;P1;durP2;ratioP2;P2;SDS_P1;SDS_P2;PMS_P1;PMS_P2;Temp;Humidity;BMP_temperature;BMP_pressure;BME280_temperature;BME280_humidity;BME280_pressure;Samples;Min_cycle;Max_cycle;Signal;HPM_P1;HPM_P2
2023/09/14 00:00:04;;;;;;;4.93;3.30;;;;;;;12.17;100.00;102070.84;5010368;28;20108;-65
2023/09/14 00:02:29;;;;;;;5.50;4.22;;;;;;;12.18;100.00;102075.22;5010134;28;20021;-64
2023/09/14 00:04:54;;;;;;;6.07;3.53;;;;;;;12.19;100.00;102081.31;5009411;28;20470;-65
2023/09/14 00:07:19;;;;;;;8.18;3.17;;;;;;;12.20;100.00;102086.56;5009878;28;20049;-64
2023/09/14 00:09:45;;;;;;;3.78;3.47;;;;;;;12.17;100.00;102080.34;5009950;28;20034;-64
2023/09/14 00:12:10;;;;;;;6.57;3.95;;;;;;;12.15;100.00;102076.78;5010000;28;20374;-64
2023/09/14 00:14:35;;;;;;;6.75;3.70;;;;;;;12.10;100.00;102074.00;5010220;28;20555;-64
2023/09/14 00:17:01;;;;;;;5.38;3.63;;;;;;;12.09;100.00;102085.16;5009207;28;20025;-64
2023/09/14 00:19:26;;;;;;;4.93;3.80;;;;;;;12.09;100.00;102086.06;5009725;28;20038;-65
2023/09/14 00:21:52;;;;;;;4.82;3.28;;;;;;;12.08;100.00;102089.47;5009420;28;20095;-65
2023/09/14 00:24:17;;;;;;;4.78;3.28;;;;;;;12.08;100.00;102091.19;5009646;28;20088;-64
2023/09/14 00:26:42;;;;;;;5.40;3.92;;;;;;;12.07;100.00;102090.28;5010058;28;20029;-64
2023/09/14 00:29:08;;;;;;;7.63;3.75;;;;;;;12.01;100.00;102088.31;5009803;28;20034;-65
2023/09/14 00:31:34;;;;;;;6.65;3.55;;;;;;;11.97;100.00;102088.97;5009048;28;20033;-65
2023/09/14 00:33:59;;;;;;;4.60;3.67;;;;;;;11.92;100.00;102090.47;5009641;28;20033;-65
2023/09/14 00:36:25;;;;;;;5.25;3.53;;;;;;;11.88;100.00;102080.75;5009521;28;20382;-65
2023/09/14 00:38:50;;;;;;;4.70;3.78;;;;;;;11.85;100.00;102083.22;5009736;28;20166;-65
2023/09/14 00:41:16;;;;;;;5.60;3.53;;;;;;;11.83;100.00;102084.84;5009402;28;20029;-64
2023/09/14 00:43:41;;;;;;;6.28;3.80;;;;;;;11.81;100.00;102083.88;5009572;28;20114;-65
2023/09/14 00:46:07;;;;;;;5.60;3.65;;;;;;;11.75;100.00;102082.78;5009049;28;20088;-64
2023/09/14 00:48:35;;;;;;;4.72;3.42;;;;;;;11.76;100.00;102083.69;5009407;28;20107;-64
2023/09/14 00:51:01;;;;;;;6.38;3.83;;;;;;;11.72;100.00;102082.63;5009461;28;20030;-65
2023/09/14 00:53:27;;;;;;;5.05;3.60;;;;;;;11.71;100.00;102088.63;5009263;28;20033;-64
2023/09/14 00:55:52;;;;;;;4.63;3.92;;;;;;;11.68;100.00;102083.31;5009036;28;20034;-65
2023/09/14 00:58:18;;;;;;;5.25;3.58;;;;;;;11.68;100.00;102085.91;5023967;28;20033;-64
2023/09/14 01:00:44;;;;;;;3.67;3.10;;;;;;;11.67;100.00;102083.22;5009372;28;20142;-65
2023/09/14 01:03:13;;;;;;;9.32;3.60;;;;;;;11.63;100.00;102082.19;5009541;28;20676;-65
2023/09/14 01:05:40;;;;;;;7.35;3.60;;;;;;;11.61;100.00;102081.22;5009028;28;20446;-65
2023/09/14 01:08:05;;;;;;;6.30;3.97;;;;;;;11.60;100.00;102077.72;5009165;28;20105;-64
2023/09/14 01:10:31;;;;;;;5.95;3.45;;;;;;;11.57;100.00;102079.28;5008714;28;20032;-64
2023/09/14 01:12:57;;;;;;;5.13;3.40;;;;;;;11.53;100.00;102080.88;5008810;28;20033;-64
2023/09/14 01:15:31;;;;;;;6.40;3.13;;;;;;;11.50;100.00;102086.81;5008886;28;20025;-65
2023/09/14 01:18:16;;;;;;;5.63;3.65;;;;;;;11.47;100.00;102086.66;5008236;28;20040;-63
2023/09/14 01:20:56;;;;;;;6.82;4.10;;;;;;;11.47;100.00;102086.66;5008964;28;20425;-65
2023/09/14 01:23:42;;;;;;;4.72;4.10;;;;;;;11.46;100.00;102078.81;5009250;28;20030;-65
2023/09/14 01:26:09;;;;;;;5.05;3.38;;;;;;;11.44;100.00;102086.50;5008692;28;20390;-64
2023/09/14 01:28:35;;;;;;;3.97;3.67;;;;;;;11.43;100.00;102087.31;5008112;28;20429;-65
2023/09/14 01:31:00;;;;;;;6.75;4.00;;;;;;;11.43;100.00;102078.63;5008610;28;20022;-65
2023/09/14 01:33:27;;;;;;;5.45;3.80;;;;;;;11.42;100.00;102085.56;5008564;28;20097;-65
2023/09/14 01:36:06;;;;;;;4.97;3.58;;;;;;;11.37;100.00;102077.53;5008482;28;20037;-64
2023/09/14 01:38:32;;;;;;;4.00;3.30;;;;;;;11.35;100.00;102080.88;5023062;28;20169;-65
2023/09/14 01:40:59;;;;;;;5.95;3.20;;;;;;;11.32;100.00;102079.00;5008059;28;20026;-65
2023/09/14 01:43:25;;;;;;;5.07;3.22;;;;;;;11.31;100.00;102078.94;5008128;28;20036;-65
2023/09/14 01:45:51;;;;;;;4.97;3.38;;;;;;;11.26;100.00;102077.00;5007799;28;20022;-65
2023/09/14 01:48:18;;;;;;;4.18;3.50;;;;;;;11.23;100.00;102076.84;5008063;28;20040;-65
2023/09/14 01:50:44;;;;;;;4.35;3.00;;;;;;;11.18;100.00;102078.34;5008145;28;20498;-65
2023/09/14 01:53:10;;;;;;;3.45;2.90;;;;;;;11.14;100.00;102077.31;5008269;28;20088;-64
2023/09/14 01:55:36;;;;;;;3.97;3.28;;;;;;;11.12;100.00;102078.03;5008224;28;20374;-65
2023/09/14 01:58:02;;;;;;;3.40;2.97;;;;;;;11.09;100.00;102077.88;5008442;28;20109;-65
2023/09/14 02:00:27;;;;;;;6.05;3.53;;;;;;;11.06;100.00;102081.22;5008058;28;20037;-65
2023/09/14 02:02:53;;;;;;;3.78;3.30;;;;;;;11.03;100.00;102083.66;5008000;28;20029;-64
2023/09/14 02:05:18;;;;;;;3.70;3.10;;;;;;;11.00;100.00;102084.41;5007752;28;20404;-65
2023/09/14 02:07:43;;;;;;;3.47;2.45;;;;;;;10.98;100.00;102078.25;5007755;28;20050;-65
2023/09/14 02:10:09;;;;;;;4.65;2.60;;;;;;;10.97;100.00;102073.88;5007495;28;20044;-64
2023/09/14 02:12:34;;;;;;;2.97;2.38;;;;;;;10.96;100.00;102079.84;5007983;28;20030;-63
2023/09/14 02:14:59;;;;;;;3.25;2.20;;;;;;;10.96;100.00;102081.56;5007558;28;20033;-63
2023/09/14 02:17:25;;;;;;;3.22;2.60;;;;;;;10.93;100.00;102082.31;5023333;28;20100;-64
2023/09/14 02:19:52;;;;;;;3.30;2.10;;;;;;;10.91;100.00;102074.44;5007898;28;20108;-65
2023/09/14 02:22:18;;;;;;;4.88;2.45;;;;;;;10.93;100.00;102083.22;5007623;28;20025;-65
2023/09/14 02:24:43;;;;;;;3.55;2.75;;;;;;;10.89;100.00;102075.19;5007228;28;20037;-64
2023/09/14 02:27:08;;;;;;;3.53;3.08;;;;;;;10.88;100.00;102066.50;5007972;28;20104;-65
2023/09/14 02:29:33;;;;;;;3.90;2.50;;;;;;;10.87;100.00;102069.00;5007481;28;20037;-64
2023/09/14 02:31:59;;;;;;;3.20;2.28;;;;;;;10.83;100.00;102074.88;5008073;28;20143;-64
2023/09/14 02:34:24;;;;;;;4.57;2.75;;;;;;;10.78;100.00;102062.56;5007771;28;20033;-65
2023/09/14 02:36:50;;;;;;;3.47;2.33;;;;;;;10.77;100.00;102065.97;5008311;28;20053;-65
2023/09/14 02:39:15;;;;;;;2.92;2.67;;;;;;;10.73;100.00;102060.53;5007383;28;20026;-64
2023/09/14 02:41:40;;;;;;;4.30;2.70;;;;;;;10.72;100.00;102054.47;5007548;28;20109;-64
2023/09/14 02:44:05;;;;;;;3.53;2.53;;;;;;;10.70;100.00;102058.69;5007292;28;20033;-65
2023/09/14 02:46:31;;;;;;;3.38;2.50;;;;;;;10.67;100.00;102058.53;5007783;28;20022;-64
2023/09/14 02:48:56;;;;;;;2.85;2.30;;;;;;;10.65;100.00;102068.81;5007308;28;20478;-65
2023/09/14 02:51:21;;;;;;;3.85;2.33;;;;;;;10.62;100.00;102060.88;5007235;28;20018;-64
2023/09/14 02:53:47;;;;;;;2.80;2.60;;;;;;;10.60;100.00;102066.78;5007451;28;20359;-64
2023/09/14 02:56:12;;;;;;;2.78;2.30;;;;;;;10.59;100.00;102059.84;5007281;28;20129;-64
2023/09/14 02:58:37;;;;;;;4.60;2.97;;;;;;;10.61;100.00;102056.53;5007535;28;20294;-64
2023/09/14 03:01:09;;;;;;;4.93;2.60;;;;;;;10.60;100.00;102053.84;5007648;28;20032;-64
2023/09/14 03:03:36;;;;;;;3.17;2.50;;;;;;;10.59;100.00;102059.84;5007457;28;20036;-64
2023/09/14 03:06:01;;;;;;;5.82;2.72;;;;;;;10.60;100.00;102061.59;5006851;28;20041;-64
2023/09/14 03:08:27;;;;;;;3.10;2.80;;;;;;;10.59;100.00;102059.84;5007569;28;20033;-63
2023/09/14 03:10:52;;;;;;;4.82;2.95;;;;;;;10.56;100.00;102058.88;5007309;28;20119;-64
2023/09/14 03:13:17;;;;;;;3.65;2.70;;;;;;;10.52;100.00;102054.31;5007420;28;20314;-65
2023/09/14 03:15:43;;;;;;;3.22;2.65;;;;;;;10.51;100.00;102052.56;5007690;28;20249;-64
2023/09/14 03:18:08;;;;;;;3.42;2.95;;;;;;;10.49;100.00;102056.78;5007004;28;20021;-64
2023/09/14 03:20:33;;;;;;;4.88;2.92;;;;;;;10.47;100.00;102066.13;5007383;28;20037;-65
2023/09/14 03:22:59;;;;;;;3.42;2.92;;;;;;;10.43;100.00;102057.31;5010221;28;20104;-65
2023/09/14 03:25:24;;;;;;;5.53;3.08;;;;;;;10.43;100.00;102064.22;5011032;28;20092;-64
2023/09/14 03:27:50;;;;;;;3.88;3.00;;;;;;;10.41;100.00;102065.81;5010668;28;20044;-65
2023/09/14 03:30:15;;;;;;;4.10;2.97;;;;;;;10.39;100.00;102068.34;5010545;28;20033;-65
2023/09/14 03:32:40;;;;;;;4.50;2.88;;;;;;;10.37;100.00;102069.06;5010438;28;20117;-65
2023/09/14 03:35:06;;;;;;;3.80;2.67;;;;;;;10.38;100.00;102065.66;5010942;28;20493;-64
2023/09/14 03:37:31;;;;;;;3.28;2.97;;;;;;;10.37;100.00;102069.06;5011409;28;20037;-65
2023/09/14 03:39:56;;;;;;;5.82;2.75;;;;;;;10.36;100.00;102067.28;5010679;28;20033;-64
2023/09/14 03:42:22;;;;;;;4.65;2.70;;;;;;;10.33;100.00;102070.59;5010291;28;20258;-63
2023/09/14 03:44:47;;;;;;;4.38;2.80;;;;;;;10.34;100.00;102072.38;5010311;28;20037;-65
2023/09/14 03:47:13;;;;;;;3.60;2.85;;;;;;;10.29;100.00;102066.94;5010714;28;20021;-65
2023/09/14 03:49:38;;;;;;;4.80;3.20;;;;;;;10.28;100.00;102065.19;5010629;28;20030;-64
2023/09/14 03:52:04;;;;;;;5.80;3.47;;;;;;;10.31;100.00;102060.16;5010624;28;20097;-63
2023/09/14 03:54:29;;;;;;;4.10;3.08;;;;;;;10.29;100.00;102060.91;5010397;28;20382;-64
2023/09/14 03:56:54;;;;;;;4.00;3.55;;;;;;;10.27;100.00;102063.38;5010679;28;20072;-65
2023/09/14 03:59:20;;;;;;;3.33;2.70;;;;;;;10.21;100.00;102068.25;5010729;28;20032;-64
2023/09/14 04:01:46;;;;;;;3.30;2.90;;;;;;;10.17;100.00;102066.28;5010112;28;20109;-65
2023/09/14 04:04:11;;;;;;;3.20;2.78;;;;;;;10.13;100.00;102066.97;5010513;28;20029;-65
2023/09/14 04:06:36;;;;;;;6.10;3.20;;;;;;;10.09;100.00;102061.59;5010183;28;20054;-64
2023/09/14 04:09:03;;;;;;;3.17;2.88;;;;;;;10.09;100.00;102064.19;5009967;28;20060;-64
2023/09/14 04:11:28;;;;;;;3.72;2.88;;;;;;;10.06;100.00;102061.44;5010396;28;20026;-65
2023/09/14 04:13:54;;;;;;;5.68;3.05;;;;;;;10.08;100.00;102061.50;5014554;28;20059;-65
2023/09/14 04:16:19;;;;;;;4.60;2.85;;;;;;;10.04;100.00;102055.28;5029203;28;20025;-64
2023/09/14 04:18:45;;;;;;;4.93;2.90;;;;;;;10.01;100.00;102059.41;5029236;28;20026;-63
2023/09/14 04:21:10;;;;;;;4.28;3.15;;;;;;;9.97;100.00;102058.34;5029844;28;20029;-64
2023/09/14 04:23:35;;;;;;;3.67;3.35;;;;;;;9.97;100.00;102063.53;5030083;28;20037;-65
2023/09/14 04:26:01;;;;;;;4.25;3.03;;;;;;;9.95;100.00;102057.38;5029753;28;20032;-65
2023/09/14 04:28:26;;;;;;;6.85;3.22;;;;;;;9.95;100.00;102060.84;5028917;28;20073;-65
2023/09/14 04:30:54;;;;;;;6.55;3.47;;;;;;;9.90;100.00;102066.59;5029623;28;20438;-64
2023/09/14 04:33:19;;;;;;;4.20;3.10;;;;;;;9.90;100.00;102064.00;5029204;28;20029;-65
2023/09/14 04:35:45;;;;;;;6.43;3.10;;;;;;;9.90;100.00;102058.81;5029192;28;20444;-63
2023/09/14 04:38:11;;;;;;;3.92;2.95;;;;;;;9.88;100.00;102063.00;5029403;28;20136;-63
2023/09/14 04:40:38;;;;;;;7.93;3.10;;;;;;;9.85;100.00;102059.47;5029405;28;20125;-64
2023/09/14 04:43:04;;;;;;;7.00;3.45;;;;;;;9.83;100.00;102061.09;5028995;28;20108;-64
2023/09/14 04:45:29;;;;;;;5.75;3.50;;;;;;;9.81;100.00;102062.69;5029300;28;20052;-65
2023/09/14 04:47:56;;;;;;;5.55;3.08;;;;;;;9.81;100.00;102066.97;5028846;28;20037;-64
2023/09/14 04:50:22;;;;;;;5.47;3.00;;;;;;;9.79;100.00;102059.13;5029324;28;20025;-65
2023/09/14 04:52:47;;;;;;;7.30;3.65;;;;;;;9.80;100.00;102060.94;5029190;28;20504;-62
2023/09/14 04:55:12;;;;;;;4.47;3.03;;;;;;;9.80;100.00;102065.22;5028502;28;20052;-64
2023/09/14 04:57:38;;;;;;;4.35;3.10;;;;;;;9.78;100.00;102062.53;5028798;28;20029;-64
2023/09/14 05:00:09;;;;;;;4.05;3.10;;;;;;;9.78;100.00;102069.41;5027494;28;20512;-64
2023/09/14 05:02:34;;;;;;;5.63;3.30;;;;;;;9.78;100.00;102072.00;5027705;28;20029;-63
2023/09/14 05:05:00;;;;;;;4.88;3.40;;;;;;;9.79;100.00;102074.66;5027112;28;20525;-64
2023/09/14 05:07:25;;;;;;;6.28;3.47;;;;;;;9.78;100.00;102072.91;5026503;28;20068;-64
2023/09/14 05:09:51;;;;;;;4.28;2.90;;;;;;;9.78;100.00;102066.81;5027483;28;20107;-64
2023/09/14 05:12:16;;;;;;;5.10;2.97;;;;;;;9.75;100.00;102062.34;5026939;28;20037;-63
2023/09/14 05:14:41;;;;;;;6.05;3.17;;;;;;;9.71;100.00;102069.06;5027961;28;20458;-64
2023/09/14 05:17:06;;;;;;;6.00;3.47;;;;;;;9.71;100.00;102073.38;5028222;28;20029;-64
2023/09/14 05:19:32;;;;;;;7.13;3.63;;;;;;;9.69;100.00;102069.78;5029062;28;20048;-64
2023/09/14 05:21:57;;;;;;;6.13;3.28;;;;;;;9.69;100.00;102078.47;5027749;28;20564;-64
2023/09/14 05:24:23;;;;;;;5.15;3.08;;;;;;;9.70;100.00;102079.31;5029132;28;20037;-65
2023/09/14 05:26:48;;;;;;;5.00;3.00;;;;;;;9.68;100.00;102078.34;5028458;28;20068;-64
2023/09/14 05:29:14;;;;;;;6.85;4.53;;;;;;;9.69;100.00;102078.47;5028461;28;20386;-64
2023/09/14 05:31:39;;;;;;;4.18;3.35;;;;;;;9.69;100.00;102080.16;5028297;28;20099;-65
2023/09/14 05:34:06;;;;;;;4.10;3.42;;;;;;;9.69;100.00;102086.22;5028450;28;20021;-65
2023/09/14 05:36:31;;;;;;;3.45;2.88;;;;;;;9.70;100.00;102092.28;5028655;28;20034;-64
2023/09/14 05:38:56;;;;;;;4.80;3.83;;;;;;;9.70;100.00;102089.69;5028190;28;20140;-64
2023/09/14 05:41:22;;;;;;;3.95;3.15;;;;;;;9.76;100.00;102097.81;5028668;28;20034;-65
2023/09/14 05:43:47;;;;;;;4.03;3.10;;;;;;;9.76;100.00;102092.63;5027711;28;20038;-63
2023/09/14 05:46:12;;;;;;;4.25;3.30;;;;;;;9.77;100.00;102094.41;5027419;28;20041;-65
2023/09/14 05:48:37;;;;;;;5.03;3.60;;;;;;;9.79;100.00;102095.38;5028022;28;20481;-62
2023/09/14 05:51:03;;;;;;;7.68;3.90;;;;;;;9.78;100.00;102093.59;5028233;28;20079;-65
2023/09/14 05:53:28;;;;;;;6.05;3.10;;;;;;;9.81;100.00;102092.88;5028158;28;20501;-64
2023/09/14 05:55:54;;;;;;;5.55;3.58;;;;;;;9.87;100.00;102102.69;5027382;28;20500;-65
2023/09/14 05:58:20;;;;;;;5.82;3.60;;;;;;;9.89;100.00;102095.88;5027870;28;20013;-64
2023/09/14 06:00:46;;;;;;;4.18;3.60;;;;;;;9.95;100.00;102101.38;5027972;28;20029;-64
2023/09/14 06:03:13;;;;;;;4.85;4.03;;;;;;;10.00;100.00;102105.13;5028277;28;20053;-64
2023/09/14 06:05:38;;;;;;;5.32;3.85;;;;;;;10.06;100.00;102105.47;5026963;28;20029;-65
2023/09/14 06:08:03;;;;;;;4.85;3.75;;;;;;;10.13;100.00;102105.81;5027637;28;20398;-65
2023/09/14 06:10:29;;;;;;;4.85;4.20;;;;;;;10.20;100.00;102105.31;5028226;28;20468;-66
2023/09/14 06:12:54;;;;;;;5.72;4.18;;;;;;;10.27;100.00;102097.06;5027712;28;20500;-65
2023/09/14 06:15:19;;;;;;;7.10;4.40;;;;;;;10.33;100.00;102105.19;5027351;28;20033;-66
2023/09/14 06:17:46;;;;;;;4.53;3.88;;;;;;;10.38;100.00;102096.75;5027797;28;20087;-65
2023/09/14 06:20:12;;;;;;;5.88;4.03;;;;;;;10.47;100.00;102092.03;5028267;28;20520;-66
2023/09/14 06:22:37;;;;;;;8.48;4.57;;;;;;;10.57;100.00;102107.31;5027075;28;20025;-65
2023/09/14 06:25:03;;;;;;;6.95;5.28;;;;;;;10.68;100.00;102101.81;5027792;28;20075;-65
2023/09/14 06:27:29;;;;;;;6.25;5.43;;;;;;;10.80;100.00;102110.22;5027620;28;20025;-64
2023/09/14 06:29:54;;;;;;;7.18;4.90;;;;;;;10.95;100.00;102105.72;5027332;28;20037;-65
2023/09/14 06:32:19;;;;;;;6.65;5.20;;;;;;;11.11;100.00;102107.38;5027485;28;20451;-64
2023/09/14 06:34:44;;;;;;;5.95;5.10;;;;;;;11.27;100.00;102104.75;5026935;28;20087;-64
2023/09/14 06:37:10;;;;;;;6.22;4.95;;;;;;;11.45;100.00;102106.47;5027422;28;20467;-65
2023/09/14 06:39:36;;;;;;;7.68;5.32;;;;;;;11.66;100.00;102116.09;5027849;28;20079;-65
2023/09/14 06:42:01;;;;;;;6.82;5.28;;;;;;;11.91;100.00;102109.47;5027345;28;20107;-64
2023/09/14 06:44:26;;;;;;;6.72;5.07;;;;;;;12.24;100.00;102101.50;5027232;28;20040;-65
2023/09/14 06:46:52;;;;;;;7.10;5.03;;;;;;;12.78;100.00;102108.97;5027658;28;20029;-65
2023/09/14 06:49:17;;;;;;;9.27;5.43;;;;;;;13.36;100.00;102106.16;5027483;28;20025;-65
2023/09/14 06:51:43;;;;;;;6.13;4.85;;;;;;;13.91;100.00;102106.59;5027653;28;20029;-65
2023/09/14 06:54:08;;;;;;;7.45;4.38;;;;;;;14.40;100.00;102102.34;5026729;28;20025;-65
2023/09/14 06:56:34;;;;;;;6.95;4.00;;;;;;;14.69;100.00;102108.53;5028300;28;20072;-65
2023/09/14 06:59:00;;;;;;;8.13;4.60;;;;;;;15.00;100.00;102110.50;5031316;28;20049;-65
2023/09/14 07:01:25;;;;;;;6.75;4.50;;;;;;;15.17;100.00;102104.06;5031889;28;20268;-64
2023/09/14 07:03:53;;;;;;;8.18;4.63;;;;;;;15.39;100.00;102117.84;5030867;28;20037;-65
2023/09/14 07:06:19;;;;;;;5.72;4.47;;;;;;;15.43;100.00;102117.09;5031011;28;20453;-65
2023/09/14 07:08:44;;;;;;;5.65;4.40;;;;;;;15.26;100.00;102117.44;5031067;28;20030;-66
2023/09/14 07:11:09;;;;;;;10.57;5.65;;;;;;;15.18;100.00;102124.13;5030988;28;20033;-65
2023/09/14 07:13:34;;;;;;;9.50;5.28;;;;;;;15.08;100.00;102118.59;5031209;28;20234;-65
2023/09/14 07:16:00;;;;;;;7.55;5.45;;;;;;;15.12;100.00;102117.88;5030599;28;20025;-65
2023/09/14 07:18:30;;;;;;;8.45;5.10;;;;;;;15.32;100.00;102115.03;5031286;28;20038;-65
2023/09/14 07:20:57;;;;;;;6.65;5.60;;;;;;;15.64;100.00;102118.63;5030953;28;20060;-65
2023/09/14 07:23:22;;;;;;;7.53;4.78;;;;;;;16.01;100.00;102114.53;5030823;28;20040;-65
2023/09/14 07:25:48;;;;;;;7.20;5.65;;;;;;;16.59;100.00;102120.50;5030625;28;20348;-65
2023/09/14 07:28:18;;;;;;;8.10;5.65;;;;;;;16.89;100.00;102122.19;5030599;28;20030;-64
2023/09/14 07:30:43;;;;;;;8.23;5.30;;;;;;;17.34;100.00;102125.94;5030848;28;20043;-65
2023/09/14 07:33:11;;;;;;;6.55;4.97;;;;;;;17.79;100.00;102122.59;5031177;28;20152;-66
2023/09/14 07:35:36;;;;;;;7.70;5.07;;;;;;;18.17;100.00;102125.19;5030764;28;20383;-65
2023/09/14 07:38:01;;;;;;;7.65;4.82;;;;;;;18.40;100.00;102132.66;5030646;28;20028;-66
2023/09/14 07:40:26;;;;;;;10.43;5.20;;;;;;;18.66;100.00;102139.22;5029949;28;20017;-65
2023/09/14 07:42:52;;;;;;;7.80;5.65;;;;;;;18.47;100.00;102134.50;5030275;28;20040;-65
2023/09/14 07:45:17;;;;;;;9.90;5.53;;;;;;;18.71;100.00;102135.84;5030340;28;20079;-66
2023/09/14 07:47:42;;;;;;;8.98;5.97;;;;;;;19.12;100.00;102138.34;5029616;28;20025;-66
2023/09/14 07:50:08;;;;;;;11.10;5.72;;;;;;;19.38;100.00;102146.63;5030275;28;20057;-66
2023/09/14 07:52:33;;;;;;;10.63;6.40;;;;;;;19.19;100.00;102142.84;5029975;28;20029;-66
2023/09/14 07:54:59;;;;;;;7.60;5.93;;;;;;;18.67;100.00;102139.25;5030370;28;20021;-66
2023/09/14 07:57:24;;;;;;;7.75;5.30;;;;;;;18.53;100.00;102139.00;5030113;28;20033;-65
2023/09/14 07:59:49;;;;;;;9.48;6.20;;;;;;;18.57;100.00;102145.19;5029523;28;20075;-66
2023/09/14 08:02:14;;;;;;;9.52;5.75;;;;;;;18.49;100.00;102145.06;5030358;28;20095;-65
2023/09/14 08:04:40;;;;;;;9.60;5.47;;;;;;;18.74;100.00;102149.88;5029853;28;20450;-65
2023/09/14 08:07:05;;;;;;;8.05;6.28;;;;;;;18.91;100.00;102156.31;5030072;28;20045;-66
2023/09/14 08:09:30;;;;;;;6.70;5.30;;;;;;;19.02;100.00;102148.66;5028670;28;20039;-66
2023/09/14 08:11:55;;;;;;;10.25;6.40;;;;;;;19.16;100.00;102151.53;5030014;28;20030;-66
2023/09/14 08:14:21;;;;;;;7.07;5.13;;;;;;;19.25;100.00;102140.28;5029799;28;20025;-66
2023/09/14 08:16:46;;;;;;;9.05;6.43;;;;;;;19.13;100.00;102146.25;5030320;28;20025;-66
2023/09/14 08:19:11;;;;;;;10.10;6.53;;;;;;;19.20;100.00;102140.22;5029937;28;20026;-65
2023/09/14 08:21:37;;;;;;;13.10;6.65;;;;;;;19.18;100.00;102136.69;5030143;28;20295;-66
2023/09/14 08:24:03;;;;;;;10.02;6.60;;;;;;;19.01;100.00;102140.75;5029147;28;20025;-66
2023/09/14 08:26:28;;;;;;;10.68;6.28;;;;;;;19.25;100.00;102147.31;5029932;28;20025;-66
2023/09/14 08:28:54;;;;;;;9.43;6.07;;;;;;;19.48;100.00;102146.78;5029724;28;20143;-65
2023/09/14 08:31:21;;;;;;;7.93;5.68;;;;;;;19.54;100.00;102146.88;5029737;28;20038;-65
2023/09/14 08:33:47;;;;;;;9.52;6.22;;;;;;;19.81;100.00;102150.75;5029808;28;20022;-66
2023/09/14 08:36:12;;;;;;;8.32;6.75;;;;;;;19.92;100.00;102149.19;5029868;28;20037;-65
2023/09/14 08:38:37;;;;;;;11.32;6.93;;;;;;;20.00;100.00;102151.03;5028933;28;20199;-65
2023/09/14 08:41:16;;;;;;;8.93;6.97;;;;;;;20.11;100.00;102159.09;5029602;28;20108;-65
2023/09/14 08:43:42;;;;;;;9.98;6.95;;;;;;;19.96;100.00;102162.38;5029137;28;20035;-65
2023/09/14 08:46:11;;;;;;;9.05;6.78;;;;;;;19.96;100.00;102159.72;5029786;28;20033;-66
2023/09/14 08:48:42;;;;;;;10.70;7.28;;;;;;;19.94;100.00;102159.72;5028818;28;20025;-66
2023/09/14 08:51:08;;;;;;;12.27;7.55;;;;;;;19.95;100.00;102156.22;5029217;28;20021;-66
2023/09/14 08:53:34;;;;;;;8.82;7.32;;;;;;;19.97;100.00;102164.16;5028918;28;20069;-65
2023/09/14 08:56:01;;;;;;;11.23;7.88;;;;;;;19.85;100.00;102151.69;5029592;28;20029;-66
2023/09/14 08:58:28;;;;;;;13.52;9.23;;;;;;;19.77;100.00;102154.22;5029262;28;20422;-66
2023/09/14 09:00:54;;;;;;;12.40;8.52;;;;;;;19.62;100.00;102149.63;5028925;28;20104;-66
2023/09/14 09:03:20;;;;;;;11.13;8.38;;;;;;;19.58;100.00;102150.44;5028605;28;20497;-66
2023/09/14 09:05:45;;;;;;;10.90;7.82;;;;;;;19.62;100.00;102145.25;5028433;28;20033;-66
2023/09/14 09:08:11;;;;;;;11.40;9.80;;;;;;;19.61;100.00;102143.47;5028741;28;20056;-65
2023/09/14 09:10:38;;;;;;;11.38;9.27;;;;;;;19.58;100.00;102143.44;5028891;28;20022;-66
2023/09/14 09:13:04;;;;;;;15.85;11.27;;;;;;;19.52;100.00;102144.22;5028191;28;20029;-66
2023/09/14 09:15:32;;;;;;;11.82;9.20;;;;;;;19.61;100.00;102142.59;5028772;28;20474;-66
2023/09/14 09:18:06;;;;;;;14.13;9.23;;;;;;;19.85;100.00;102147.31;5028903;28;20446;-66
2023/09/14 09:20:32;;;;;;;13.60;10.13;;;;;;;20.07;100.00;102142.38;5028455;28;20029;-66
2023/09/14 09:23:01;;;;;;;13.15;9.90;;;;;;;20.26;99.65;102143.50;5028548;28;20397;-65
2023/09/14 09:25:29;;;;;;;13.75;9.57;;;;;;;20.34;97.81;102146.22;5028782;28;20025;-66
2023/09/14 09:28:02;;;;;;;11.90;9.73;;;;;;;20.47;97.81;102139.34;5027946;28;20033;-65
2023/09/14 09:30:35;;;;;;;10.98;9.27;;;;;;;20.48;92.16;102137.59;5028763;28;20033;-66
2023/09/14 09:33:01;;;;;;;9.05;7.28;;;;;;;20.51;93.82;102134.97;5028530;28;20531;-67
2023/09/14 09:35:28;;;;;;;10.18;7.57;;;;;;;20.48;93.20;102142.84;5028370;28;20033;-66
2023/09/14 09:37:55;;;;;;;11.80;9.25;;;;;;;20.35;95.69;102132.19;5028467;28;20029;-67
2023/09/14 09:40:23;;;;;;;12.70;8.57;;;;;;;20.26;94.27;102137.34;5027747;28;20029;-66
2023/09/14 09:42:49;;;;;;;7.88;6.18;;;;;;;20.27;93.73;102139.13;5028405;28;20087;-66
2023/09/14 09:45:15;;;;;;;7.70;6.65;;;;;;;20.28;92.17;102135.63;5027754;28;20033;-66
2023/09/14 09:47:41;;;;;;;8.35;6.00;;;;;;;20.27;93.38;102136.50;5028508;28;20491;-66
2023/09/14 09:50:08;;;;;;;6.88;5.88;;;;;;;20.30;91.22;102138.25;5028072;28;20386;-66
2023/09/14 09:52:34;;;;;;;6.65;5.45;;;;;;;20.38;93.66;102126.94;5027372;28;20029;-66
2023/09/14 09:55:00;;;;;;;5.93;5.00;;;;;;;20.42;92.58;102124.38;5028633;28;20032;-66
2023/09/14 09:57:32;;;;;;;8.88;6.15;;;;;;;20.41;90.06;102128.75;5027934;28;20659;-67
2023/09/14 09:59:57;;;;;;;9.27;6.32;;;;;;;20.34;87.37;102135.69;5027923;28;20028;-67
2023/09/14 10:02:31;;;;;;;8.98;6.68;;;;;;;20.35;93.19;102124.28;5027447;28;20025;-67
2023/09/14 10:04:57;;;;;;;6.82;4.60;;;;;;;20.30;91.88;102123.38;5027715;28;20513;-66
2023/09/14 10:07:23;;;;;;;4.38;3.40;;;;;;;20.19;86.92;102127.59;5027770;28;20741;-67
2023/09/14 10:09:53;;;;;;;7.03;4.22;;;;;;;20.25;92.71;102130.31;5027876;28;20026;-67
2023/09/14 10:12:26;;;;;;;10.02;6.53;;;;;;;20.28;90.28;102127.72;5027676;28;20577;-66
2023/09/14 10:14:55;;;;;;;7.68;5.28;;;;;;;20.29;91.99;102116.34;5009896;28;20033;-65
2023/09/14 10:17:22;;;;;;;7.45;4.60;;;;;;;20.22;86.63;102130.28;5027787;28;20474;-66
2023/09/14 10:19:49;;;;;;;11.75;6.95;;;;;;;20.15;89.39;102122.31;5027937;28;20486;-67
2023/09/14 10:22:16;;;;;;;9.30;6.10;;;;;;;20.24;92.85;102113.66;5027535;28;20040;-66
2023/09/14 10:24:42;;;;;;;9.10;6.45;;;;;;;20.33;84.88;102123.38;5027524;28;20030;-66
2023/09/14 10:27:09;;;;;;;8.10;5.40;;;;;;;20.35;85.15;102121.66;5028304;28;20033;-66
2023/09/14 10:29:38;;;;;;;11.02;6.10;;;;;;;20.49;88.01;102115.69;5027347;28;20032;-67
2023/09/14 10:32:05;;;;;;;7.90;5.15;;;;;;;20.66;84.26;102114.94;5027283;28;20029;-66
2023/09/14 10:34:33;;;;;;;6.53;4.32;;;;;;;20.79;88.00;102113.31;5027422;28;20021;-66
2023/09/14 10:37:00;;;;;;;5.57;4.22;;;;;;;20.97;84.88;102113.53;5027439;28;20099;-66
2023/09/14 10:39:25;;;;;;;5.18;4.00;;;;;;;21.02;83.38;102113.56;5027104;28;20116;-66
2023/09/14 10:41:51;;;;;;;6.35;4.43;;;;;;;20.99;83.02;102106.50;5027276;28;20127;-66
2023/09/14 10:44:16;;;;;;;6.03;4.10;;;;;;;21.10;84.04;102111.88;5027786;28;20033;-67
2023/09/14 10:46:44;;;;;;;6.38;4.22;;;;;;;21.17;81.32;102102.28;5027480;28;20026;-66
2023/09/14 10:49:10;;;;;;;7.20;4.65;;;;;;;21.17;81.40;102099.66;5026771;28;20033;-66
2023/09/14 10:51:35;;;;;;;6.18;4.75;;;;;;;21.15;80.28;102104.00;5027527;28;20127;-67
2023/09/14 10:54:02;;;;;;;5.18;4.47;;;;;;;21.24;81.84;102093.50;5027118;28;20026;-66
2023/09/14 10:56:33;;;;;;;6.68;5.05;;;;;;;21.42;80.47;102091.00;5027815;28;20484;-67
2023/09/14 10:59:08;;;;;;;4.82;3.75;;;;;;;21.56;80.13;102086.72;5027138;28;20075;-66
2023/09/14 11:01:46;;;;;;;6.55;4.53;;;;;;;21.55;77.26;102082.28;5027245;28;20038;-66
2023/09/14 11:04:16;;;;;;;6.07;3.80;;;;;;;21.41;77.60;102084.84;5026502;28;20537;-65
2023/09/14 11:06:48;;;;;;;4.88;3.50;;;;;;;21.14;76.77;102089.06;5027223;28;20457;-66
2023/09/14 11:09:14;;;;;;;5.63;3.97;;;;;;;20.92;76.72;102090.63;5027247;28;20199;-66
2023/09/14 11:11:42;;;;;;;6.63;4.45;;;;;;;20.60;73.36;102087.69;5027045;28;20021;-66
2023/09/14 11:14:14;;;;;;;6.25;4.70;;;;;;;20.37;77.01;102083.09;5027491;28;20025;-66